sensor_id;sensor_type;location;lat;lon;timestamp;P1;durP1;ratioP1;P2;durP2;ratioP2
64842;SDS011;51310;52.198;5.422;2022-11-20T00:01:30;24.63;;;12.90;;
64842;SDS011;51310;52.198;5.422;2022-11-20T00:03:56;23.35;;;12.73;;
64842;SDS011;51310;52.198;5.422;2022-11-20T00:06:23;25.10;;;12.57;;
64842;SDS011;51310;52.198;5.422;2022-11-20T00:08:53;22.98;;;12.05;;
64842;SDS011;51310;52.198;5.422;2022-11-20T00:11:23;28.30;;;15.38;;
64842;SDS011;51310;52.198;5.422;2022-11-20T00:13:55;26.73;;;14.52;;
64842;SDS011;51310;52.198;5.422;2022-11-20T00:16:25;27.60;;;14.50;;
64842;SDS011;51310;52.198;5.422;2022-11-20T00:18:54;27.92;;;14.02;;
64842;SDS011;51310;52.198;5.422;2022-11-20T00:21:21;40.67;;;19.98;;
64842;SDS011;51310;52.198;5.422;2022-11-20T00:23:51;59.30;;;30.35;;
64842;SDS011;51310;52.198;5.422;2022-11-20T00:26:20;47.33;;;22.90;;
64842;SDS011;51310;52.198;5.422;2022-11-20T00:28:50;59.27;;;25.37;;
64842;SDS011;51310;52.198;5.422;2022-11-20T00:31:25;58.83;;;25.90;;
64842;SDS011;51310;52.198;5.422;2022-11-20T00:33:53;41.67;;;19.70;;
64842;SDS011;51310;52.198;5.422;2022-11-20T00:36:20;31.08;;;15.63;;
64842;SDS011;51310;52.198;5.422;2022-11-20T00:38:53;33.35;;;15.57;;
64842;SDS011;51310;52.198;5.422;2022-11-20T00:41:22;39.33;;;17.50;;
64842;SDS011;51310;52.198;5.422;2022-11-20T00:43:54;27.10;;;14.33;;
64842;SDS011;51310;52.198;5.422;2022-11-20T00:46:21;27.50;;;13.77;;
64842;SDS011;51310;52.198;5.422;2022-11-20T00:48:51;29.83;;;13.77;;
64842;SDS011;51310;52.198;5.422;2022-11-20T00:51:19;29.83;;;14.50;;
64842;SDS011;51310;52.198;5.422;2022-11-20T00:53:49;26.77;;;14.30;;
64842;SDS011;51310;52.198;5.422;2022-11-20T00:56:16;28.30;;;14.80;;
64842;SDS011;51310;52.198;5.422;2022-11-20T00:58:46;27.48;;;13.57;;
64842;SDS011;51310;52.198;5.422;2022-11-20T01:01:15;27.83;;;13.93;;
64842;SDS011;51310;52.198;5.422;2022-11-20T01:03:51;28.67;;;13.60;;
64842;SDS011;51310;52.198;5.422;2022-11-20T01:06:21;26.35;;;13.00;;
64842;SDS011;51310;52.198;5.422;2022-11-20T01:09:06;30.60;;;15.15;;
64842;SDS011;51310;52.198;5.422;2022-11-20T01:11:39;26.42;;;13.77;;
64842;SDS011;51310;52.198;5.422;2022-11-20T01:14:13;26.75;;;13.73;;
64842;SDS011;51310;52.198;5.422;2022-11-20T01:16:43;27.38;;;13.50;;
64842;SDS011;51310;52.198;5.422;2022-11-20T01:19:17;27.58;;;14.25;;
64842;SDS011;51310;52.198;5.422;2022-11-20T01:21:48;24.13;;;13.90;;
64842;SDS011;51310;52.198;5.422;2022-11-20T01:24:19;24.15;;;13.13;;
64842;SDS011;51310;52.198;5.422;2022-11-20T01:26:47;27.60;;;13.45;;
64842;SDS011;51310;52.198;5.422;2022-11-20T01:29:16;29.45;;;14.45;;
64842;SDS011;51310;52.198;5.422;2022-11-20T01:31:48;26.35;;;13.32;;
64842;SDS011;51310;52.198;5.422;2022-11-20T01:34:16;24.17;;;13.25;;
64842;SDS011;51310;52.198;5.422;2022-11-20T01:36:46;27.35;;;13.35;;
64842;SDS011;51310;52.198;5.422;2022-11-20T01:39:14;23.13;;;12.75;;
64842;SDS011;51310;52.198;5.422;2022-11-20T01:41:44;29.55;;;13.23;;
64842;SDS011;51310;52.198;5.422;2022-11-20T01:50:21;26.30;;;13.25;;
64842;SDS011;51310;52.198;5.422;2022-11-20T01:53:01;22.00;;;13.15;;
64842;SDS011;51310;52.198;5.422;2022-11-20T01:55:37;25.50;;;13.83;;
64842;SDS011;51310;52.198;5.422;2022-11-20T01:58:18;26.00;;;13.23;;
64842;SDS011;51310;52.198;5.422;2022-11-20T02:00:52;24.30;;;12.70;;
64842;SDS011;51310;52.198;5.422;2022-11-20T02:03:19;24.00;;;13.57;;
64842;SDS011;51310;52.198;5.422;2022-11-20T02:08:39;24.45;;;12.63;;
64842;SDS011;51310;52.198;5.422;2022-11-20T02:11:05;23.45;;;12.82;;
64842;SDS011;51310;52.198;5.422;2022-11-20T02:13:32;21.85;;;11.65;;
64842;SDS011;51310;52.198;5.422;2022-11-20T02:16:10;25.55;;;12.07;;
64842;SDS011;51310;52.198;5.422;2022-11-20T02:18:50;21.70;;;12.25;;
64842;SDS011;51310;52.198;5.422;2022-11-20T02:24:17;24.15;;;12.32;;
64842;SDS011;51310;52.198;5.422;2022-11-20T02:29:38;26.67;;;12.10;;
64842;SDS011;51310;52.198;5.422;2022-11-20T02:34:56;27.85;;;12.75;;
64842;SDS011;51310;52.198;5.422;2022-11-20T02:37:22;26.42;;;12.60;;
64842;SDS011;51310;52.198;5.422;2022-11-20T02:39:55;22.60;;;11.82;;
64842;SDS011;51310;52.198;5.422;2022-11-20T02:42:21;24.63;;;12.50;;
64842;SDS011;51310;52.198;5.422;2022-11-20T02:44:47;24.08;;;13.02;;
64842;SDS011;51310;52.198;5.422;2022-11-20T02:47:13;27.63;;;13.10;;
64842;SDS011;51310;52.198;5.422;2022-11-20T02:49:39;23.55;;;12.43;;
64842;SDS011;51310;52.198;5.422;2022-11-20T02:52:04;21.27;;;11.70;;
64842;SDS011;51310;52.198;5.422;2022-11-20T02:54:30;22.90;;;11.63;;
64842;SDS011;51310;52.198;5.422;2022-11-20T02:56:56;24.58;;;11.80;;
64842;SDS011;51310;52.198;5.422;2022-11-20T02:59:22;23.98;;;12.50;;
64842;SDS011;51310;52.198;5.422;2022-11-20T03:01:48;21.63;;;12.07;;
64842;SDS011;51310;52.198;5.422;2022-11-20T03:04:14;23.65;;;11.98;;
64842;SDS011;51310;52.198;5.422;2022-11-20T03:06:39;21.45;;;12.57;;
64842;SDS011;51310;52.198;5.422;2022-11-20T03:09:05;19.27;;;11.07;;
64842;SDS011;51310;52.198;5.422;2022-11-20T03:11:31;21.33;;;11.70;;
64842;SDS011;51310;52.198;5.422;2022-11-20T03:13:57;19.33;;;10.90;;
64842;SDS011;51310;52.198;5.422;2022-11-20T03:16:28;23.92;;;12.38;;
64842;SDS011;51310;52.198;5.422;2022-11-20T03:18:55;23.52;;;11.95;;
64842;SDS011;51310;52.198;5.422;2022-11-20T03:21:21;23.30;;;12.10;;
64842;SDS011;51310;52.198;5.422;2022-11-20T03:23:47;22.70;;;11.73;;
64842;SDS011;51310;52.198;5.422;2022-11-20T03:26:17;23.10;;;12.55;;
64842;SDS011;51310;52.198;5.422;2022-11-20T03:28:49;28.75;;;14.30;;
64842;SDS011;51310;52.198;5.422;2022-11-20T03:31:19;23.05;;;12.32;;
64842;SDS011;51310;52.198;5.422;2022-11-20T03:33:50;25.38;;;12.57;;
64842;SDS011;51310;52.198;5.422;2022-11-20T03:36:17;23.73;;;12.38;;
64842;SDS011;51310;52.198;5.422;2022-11-20T03:38:46;21.15;;;11.48;;
64842;SDS011;51310;52.198;5.422;2022-11-20T03:41:14;24.47;;;12.37;;
64842;SDS011;51310;52.198;5.422;2022-11-20T03:43:48;22.33;;;12.32;;
64842;SDS011;51310;52.198;5.422;2022-11-20T03:46:15;19.17;;;11.17;;
64842;SDS011;51310;52.198;5.422;2022-11-20T03:48:42;22.77;;;11.88;;
64842;SDS011;51310;52.198;5.422;2022-11-20T03:51:15;20.98;;;11.23;;
64842;SDS011;51310;52.198;5.422;2022-11-20T03:53:46;20.75;;;11.98;;
64842;SDS011;51310;52.198;5.422;2022-11-20T03:56:15;23.87;;;12.33;;
64842;SDS011;51310;52.198;5.422;2022-11-20T03:58:47;20.20;;;11.18;;
64842;SDS011;51310;52.198;5.422;2022-11-20T04:01:17;19.42;;;11.07;;
64842;SDS011;51310;52.198;5.422;2022-11-20T04:03:53;21.02;;;12.27;;
64842;SDS011;51310;52.198;5.422;2022-11-20T04:06:23;24.25;;;11.93;;
64842;SDS011;51310;52.198;5.422;2022-11-20T04:08:57;19.50;;;12.07;;
64842;SDS011;51310;52.198;5.422;2022-11-20T04:11:25;20.35;;;11.73;;
64842;SDS011;51310;52.198;5.422;2022-11-20T04:13:56;27.08;;;12.88;;
64842;SDS011;51310;52.198;5.422;2022-11-20T04:16:28;21.13;;;12.60;;
64842;SDS011;51310;52.198;5.422;2022-11-20T04:18:59;26.33;;;13.15;;
64842;SDS011;51310;52.198;5.422;2022-11-20T04:21:27;24.13;;;12.73;;
64842;SDS011;51310;52.198;5.422;2022-11-20T04:23:54;27.83;;;13.63;;
64842;SDS011;51310;52.198;5.422;2022-11-20T04:26:21;26.63;;;13.13;;
64842;SDS011;51310;52.198;5.422;2022-11-20T04:28:50;25.30;;;13.07;;
64842;SDS011;51310;52.198;5.422;2022-11-20T04:31:18;29.77;;;13.55;;
64842;SDS011;51310;52.198;5.422;2022-11-20T04:33:48;25.58;;;13.90;;
64842;SDS011;51310;52.198;5.422;2022-11-20T04:38:50;24.37;;;13.77;;
64842;SDS011;51310;52.198;5.422;2022-11-20T04:41:30;25.08;;;13.38;;
64842;SDS011;51310;52.198;5.422;2022-11-20T04:44:00;27.05;;;12.80;;
64842;SDS011;51310;52.198;5.422;2022-11-20T04:46:36;22.73;;;12.98;;
64842;SDS011;51310;52.198;5.422;2022-11-20T04:49:06;25.17;;;13.75;;
64842;SDS011;51310;52.198;5.422;2022-11-20T04:51:33;23.73;;;12.90;;
64842;SDS011;51310;52.198;5.422;2022-11-20T04:54:00;26.83;;;14.33;;
64842;SDS011;51310;52.198;5.422;2022-11-20T04:56:26;24.27;;;13.65;;
64842;SDS011;51310;52.198;5.422;2022-11-20T04:58:52;21.83;;;12.47;;
64842;SDS011;51310;52.198;5.422;2022-11-20T05:01:19;28.03;;;14.17;;
64842;SDS011;51310;52.198;5.422;2022-11-20T05:03:48;25.05;;;12.68;;
64842;SDS011;51310;52.198;5.422;2022-11-20T05:06:15;25.65;;;13.73;;
64842;SDS011;51310;52.198;5.422;2022-11-20T05:08:45;23.25;;;13.07;;
64842;SDS011;51310;52.198;5.422;2022-11-20T05:11:15;25.17;;;13.13;;
64842;SDS011;51310;52.198;5.422;2022-11-20T05:13:45;25.88;;;13.63;;
64842;SDS011;51310;52.198;5.422;2022-11-20T05:16:12;22.93;;;13.30;;
64842;SDS011;51310;52.198;5.422;2022-11-20T05:18:45;25.15;;;13.98;;
64842;SDS011;51310;52.198;5.422;2022-11-20T05:21:11;26.52;;;13.02;;
64842;SDS011;51310;52.198;5.422;2022-11-20T05:23:39;25.88;;;13.45;;
64842;SDS011;51310;52.198;5.422;2022-11-20T05:26:07;24.88;;;13.60;;
64842;SDS011;51310;52.198;5.422;2022-11-20T05:28:46;24.92;;;13.85;;
64842;SDS011;51310;52.198;5.422;2022-11-20T05:31:14;25.33;;;13.43;;
64842;SDS011;51310;52.198;5.422;2022-11-20T05:33:44;27.08;;;13.38;;
64842;SDS011;51310;52.198;5.422;2022-11-20T05:36:11;26.30;;;13.77;;
64842;SDS011;51310;52.198;5.422;2022-11-20T05:38:39;26.58;;;13.88;;
64842;SDS011;51310;52.198;5.422;2022-11-20T05:41:15;27.93;;;14.33;;
64842;SDS011;51310;52.198;5.422;2022-11-20T05:43:45;25.13;;;13.20;;
64842;SDS011;51310;52.198;5.422;2022-11-20T05:46:14;26.60;;;14.13;;
64842;SDS011;51310;52.198;5.422;2022-11-20T05:48:43;26.70;;;13.65;;
64842;SDS011;51310;52.198;5.422;2022-11-20T05:51:11;26.35;;;13.25;;
64842;SDS011;51310;52.198;5.422;2022-11-20T05:53:44;24.98;;;13.30;;
64842;SDS011;51310;52.198;5.422;2022-11-20T05:56:11;25.75;;;13.70;;
64842;SDS011;51310;52.198;5.422;2022-11-20T05:58:44;22.27;;;11.63;;
64842;SDS011;51310;52.198;5.422;2022-11-20T06:01:12;24.02;;;12.57;;
64842;SDS011;51310;52.198;5.422;2022-11-20T06:03:41;24.83;;;13.02;;
64842;SDS011;51310;52.198;5.422;2022-11-20T06:06:10;26.33;;;13.45;;
64842;SDS011;51310;52.198;5.422;2022-11-20T06:08:37;24.15;;;11.90;;
64842;SDS011;51310;52.198;5.422;2022-11-20T06:11:06;25.45;;;12.68;;
64842;SDS011;51310;52.198;5.422;2022-11-20T06:13:36;22.03;;;12.47;;
64842;SDS011;51310;52.198;5.422;2022-11-20T06:16:03;23.95;;;12.95;;
64842;SDS011;51310;52.198;5.422;2022-11-20T06:18:30;26.92;;;12.60;;
64842;SDS011;51310;52.198;5.422;2022-11-20T06:21:00;22.97;;;12.90;;
64842;SDS011;51310;52.198;5.422;2022-11-20T06:23:48;24.38;;;13.18;;
64842;SDS011;51310;52.198;5.422;2022-11-20T06:26:16;24.27;;;13.25;;
64842;SDS011;51310;52.198;5.422;2022-11-20T06:28:50;24.65;;;13.70;;
64842;SDS011;51310;52.198;5.422;2022-11-20T06:31:18;24.30;;;12.43;;
64842;SDS011;51310;52.198;5.422;2022-11-20T06:33:48;24.88;;;13.60;;
64842;SDS011;51310;52.198;5.422;2022-11-20T06:36:16;28.05;;;13.30;;
64842;SDS011;51310;52.198;5.422;2022-11-20T06:38:46;26.35;;;13.20;;
64842;SDS011;51310;52.198;5.422;2022-11-20T06:41:14;29.67;;;13.90;;
64842;SDS011;51310;52.198;5.422;2022-11-20T06:43:46;23.50;;;12.90;;
64842;SDS011;51310;52.198;5.422;2022-11-20T06:46:13;23.50;;;12.95;;
64842;SDS011;51310;52.198;5.422;2022-11-20T06:48:44;22.05;;;12.57;;
64842;SDS011;51310;52.198;5.422;2022-11-20T06:51:12;25.45;;;13.57;;
64842;SDS011;51310;52.198;5.422;2022-11-20T06:53:39;24.58;;;12.98;;
64842;SDS011;51310;52.198;5.422;2022-11-20T06:56:05;24.10;;;13.32;;
64842;SDS011;51310;52.198;5.422;2022-11-20T06:58:33;22.93;;;13.10;;
64842;SDS011;51310;52.198;5.422;2022-11-20T07:01:01;24.70;;;12.17;;
64842;SDS011;51310;52.198;5.422;2022-11-20T07:03:31;27.65;;;13.63;;
64842;SDS011;51310;52.198;5.422;2022-11-20T07:05:58;27.33;;;14.30;;
64842;SDS011;51310;52.198;5.422;2022-11-20T07:08:26;23.57;;;13.63;;
64842;SDS011;51310;52.198;5.422;2022-11-20T07:10:52;28.23;;;14.10;;
64842;SDS011;51310;52.198;5.422;2022-11-20T07:13:26;22.90;;;12.45;;
64842;SDS011;51310;52.198;5.422;2022-11-20T07:15:54;25.45;;;13.82;;
64842;SDS011;51310;52.198;5.422;2022-11-20T07:18:26;23.95;;;14.20;;
64842;SDS011;51310;52.198;5.422;2022-11-20T07:20:52;28.90;;;15.38;;
64842;SDS011;51310;52.198;5.422;2022-11-20T07:23:18;27.23;;;15.23;;
64842;SDS011;51310;52.198;5.422;2022-11-20T07:25:44;29.80;;;15.73;;
64842;SDS011;51310;52.198;5.422;2022-11-20T07:28:10;30.10;;;15.32;;
64842;SDS011;51310;52.198;5.422;2022-11-20T07:30:35;29.52;;;14.27;;
64842;SDS011;51310;52.198;5.422;2022-11-20T07:33:02;28.33;;;15.65;;
64842;SDS011;51310;52.198;5.422;2022-11-20T07:35:28;29.35;;;16.27;;
64842;SDS011;51310;52.198;5.422;2022-11-20T07:37:54;25.77;;;14.60;;
64842;SDS011;51310;52.198;5.422;2022-11-20T07:40:20;30.60;;;15.37;;
64842;SDS011;51310;52.198;5.422;2022-11-20T07:42:49;29.50;;;14.97;;
64842;SDS011;51310;52.198;5.422;2022-11-20T07:45:18;27.50;;;15.80;;
64842;SDS011;51310;52.198;5.422;2022-11-20T07:47:46;30.23;;;13.77;;
64842;SDS011;51310;52.198;5.422;2022-11-20T07:50:13;25.27;;;14.57;;
64842;SDS011;51310;52.198;5.422;2022-11-20T07:52:40;28.55;;;14.27;;
64842;SDS011;51310;52.198;5.422;2022-11-20T07:55:06;28.80;;;14.13;;
64842;SDS011;51310;52.198;5.422;2022-11-20T07:57:33;41.85;;;19.40;;
64842;SDS011;51310;52.198;5.422;2022-11-20T07:59:59;49.75;;;21.95;;
64842;SDS011;51310;52.198;5.422;2022-11-20T08:02:25;42.63;;;19.67;;
64842;SDS011;51310;52.198;5.422;2022-11-20T08:04:51;34.25;;;16.52;;
64842;SDS011;51310;52.198;5.422;2022-11-20T08:07:17;27.20;;;15.52;;
64842;SDS011;51310;52.198;5.422;2022-11-20T08:09:43;28.20;;;14.70;;
64842;SDS011;51310;52.198;5.422;2022-11-20T08:12:10;24.67;;;14.75;;
64842;SDS011;51310;52.198;5.422;2022-11-20T08:15:04;26.27;;;14.55;;
64842;SDS011;51310;52.198;5.422;2022-11-20T08:17:31;27.27;;;14.52;;
64842;SDS011;51310;52.198;5.422;2022-11-20T08:19:57;29.15;;;15.32;;
64842;SDS011;51310;52.198;5.422;2022-11-20T08:22:23;27.60;;;15.73;;
64842;SDS011;51310;52.198;5.422;2022-11-20T08:24:50;27.77;;;15.30;;
64842;SDS011;51310;52.198;5.422;2022-11-20T08:27:16;38.10;;;17.70;;
64842;SDS011;51310;52.198;5.422;2022-11-20T08:29:41;27.90;;;16.33;;
64842;SDS011;51310;52.198;5.422;2022-11-20T08:32:07;28.67;;;16.13;;
64842;SDS011;51310;52.198;5.422;2022-11-20T08:34:33;31.05;;;15.77;;
64842;SDS011;51310;52.198;5.422;2022-11-20T08:37:01;32.75;;;16.83;;
64842;SDS011;51310;52.198;5.422;2022-11-20T08:39:28;29.67;;;15.82;;
64842;SDS011;51310;52.198;5.422;2022-11-20T08:41:53;36.13;;;17.77;;
64842;SDS011;51310;52.198;5.422;2022-11-20T08:44:19;29.77;;;16.17;;
64842;SDS011;51310;52.198;5.422;2022-11-20T08:46:45;30.47;;;16.43;;
64842;SDS011;51310;52.198;5.422;2022-11-20T08:49:12;29.20;;;16.23;;
64842;SDS011;51310;52.198;5.422;2022-11-20T08:51:40;26.95;;;15.68;;
64842;SDS011;51310;52.198;5.422;2022-11-20T08:54:07;30.27;;;16.33;;
64842;SDS011;51310;52.198;5.422;2022-11-20T08:56:33;30.98;;;16.25;;
64842;SDS011;51310;52.198;5.422;2022-11-20T08:58:59;30.25;;;16.98;;
64842;SDS011;51310;52.198;5.422;2022-11-20T09:01:26;27.83;;;16.27;;
64842;SDS011;51310;52.198;5.422;2022-11-20T09:03:57;32.75;;;16.23;;
64842;SDS011;51310;52.198;5.422;2022-11-20T09:06:24;31.98;;;16.90;;
64842;SDS011;51310;52.198;5.422;2022-11-20T09:08:54;27.35;;;15.38;;
64842;SDS011;51310;52.198;5.422;2022-11-20T09:11:20;28.67;;;16.88;;
64842;SDS011;51310;52.198;5.422;2022-11-20T09:13:46;30.17;;;16.45;;
64842;SDS011;51310;52.198;5.422;2022-11-20T09:16:12;30.95;;;16.35;;
64842;SDS011;51310;52.198;5.422;2022-11-20T09:18:38;27.70;;;16.60;;
64842;SDS011;51310;52.198;5.422;2022-11-20T09:21:05;31.67;;;16.45;;
64842;SDS011;51310;52.198;5.422;2022-11-20T09:23:37;27.57;;;16.00;;
64842;SDS011;51310;52.198;5.422;2022-11-20T09:26:10;32.95;;;16.30;;
64842;SDS011;51310;52.198;5.422;2022-11-20T09:28:38;30.27;;;15.43;;
64842;SDS011;51310;52.198;5.422;2022-11-20T09:31:09;34.72;;;17.33;;
64842;SDS011;51310;52.198;5.422;2022-11-20T09:33:51;27.25;;;15.65;;
64842;SDS011;51310;52.198;5.422;2022-11-20T09:36:17;36.88;;;19.60;;
64842;SDS011;51310;52.198;5.422;2022-11-20T09:38:44;42.38;;;21.30;;
64842;SDS011;51310;52.198;5.422;2022-11-20T09:41:27;38.60;;;19.77;;
64842;SDS011;51310;52.198;5.422;2022-11-20T09:44:04;30.50;;;17.67;;
64842;SDS011;51310;52.198;5.422;2022-11-20T09:46:57;32.08;;;18.00;;
64842;SDS011;51310;52.198;5.422;2022-11-20T09:55:31;31.10;;;16.80;;
64842;SDS011;51310;52.198;5.422;2022-11-20T09:57:58;27.48;;;16.48;;
64842;SDS011;51310;52.198;5.422;2022-11-20T10:00:24;33.03;;;16.90;;
64842;SDS011;51310;52.198;5.422;2022-11-20T10:05:47;30.05;;;15.93;;
64842;SDS011;51310;52.198;5.422;2022-11-20T10:08:28;29.45;;;17.00;;
64842;SDS011;51310;52.198;5.422;2022-11-20T10:11:18;29.30;;;16.40;;
64842;SDS011;51310;52.198;5.422;2022-11-20T10:14:21;30.77;;;17.13;;
64842;SDS011;51310;52.198;5.422;2022-11-20T10:17:19;30.35;;;17.35;;
64842;SDS011;51310;52.198;5.422;2022-11-20T10:20:27;29.02;;;16.92;;
64842;SDS011;51310;52.198;5.422;2022-11-20T10:23:20;30.17;;;16.30;;
64842;SDS011;51310;52.198;5.422;2022-11-20T10:26:22;36.67;;;17.67;;
64842;SDS011;51310;52.198;5.422;2022-11-20T10:29:28;28.17;;;16.95;;
64842;SDS011;51310;52.198;5.422;2022-11-20T10:32:02;29.55;;;16.40;;
64842;SDS011;51310;52.198;5.422;2022-11-20T10:34:58;28.50;;;16.70;;
64842;SDS011;51310;52.198;5.422;2022-11-20T10:37:27;29.85;;;17.15;;
64842;SDS011;51310;52.198;5.422;2022-11-20T10:43:13;32.20;;;17.30;;
64842;SDS011;51310;52.198;5.422;2022-11-20T10:45:53;32.72;;;18.38;;
64842;SDS011;51310;52.198;5.422;2022-11-20T10:48:31;29.35;;;17.33;;
64842;SDS011;51310;52.198;5.422;2022-11-20T10:50:59;32.22;;;17.48;;
64842;SDS011;51310;52.198;5.422;2022-11-20T11:00:30;33.22;;;19.00;;
64842;SDS011;51310;52.198;5.422;2022-11-20T11:02:57;33.53;;;18.48;;
64842;SDS011;51310;52.198;5.422;2022-11-20T11:05:32;33.47;;;19.38;;
64842;SDS011;51310;52.198;5.422;2022-11-20T11:08:16;34.45;;;19.10;;
64842;SDS011;51310;52.198;5.422;2022-11-20T11:10:46;36.85;;;20.52;;
64842;SDS011;51310;52.198;5.422;2022-11-20T11:13:27;35.65;;;19.77;;
64842;SDS011;51310;52.198;5.422;2022-11-20T11:15:57;36.70;;;20.10;;
64842;SDS011;51310;52.198;5.422;2022-11-20T11:20:55;35.78;;;19.67;;
64842;SDS011;51310;52.198;5.422;2022-11-20T11:23:40;40.22;;;20.55;;
64842;SDS011;51310;52.198;5.422;2022-11-20T11:26:21;33.97;;;19.55;;
64842;SDS011;51310;52.198;5.422;2022-11-20T11:28:56;34.05;;;19.23;;
64842;SDS011;51310;52.198;5.422;2022-11-20T11:31:32;35.17;;;20.17;;
64842;SDS011;51310;52.198;5.422;2022-11-20T11:34:16;36.47;;;19.58;;
64842;SDS011;51310;52.198;5.422;2022-11-20T11:36:49;33.83;;;19.90;;
64842;SDS011;51310;52.198;5.422;2022-11-20T11:39:22;40.27;;;21.33;;
64842;SDS011;51310;52.198;5.422;2022-11-20T11:41:51;39.85;;;20.55;;
64842;SDS011;51310;52.198;5.422;2022-11-20T11:44:23;40.45;;;20.55;;
64842;SDS011;51310;52.198;5.422;2022-11-20T11:47:22;38.97;;;19.90;;
64842;SDS011;51310;52.198;5.422;2022-11-20T11:52:42;39.58;;;22.08;;
64842;SDS011;51310;52.198;5.422;2022-11-20T11:58:47;41.40;;;22.63;;
64842;SDS011;51310;52.198;5.422;2022-11-20T12:07:01;43.28;;;23.15;;
64842;SDS011;51310;52.198;5.422;2022-11-20T12:09:43;41.60;;;23.23;;
64842;SDS011;51310;52.198;5.422;2022-11-20T12:12:18;41.13;;;23.45;;
64842;SDS011;51310;52.198;5.422;2022-11-20T12:14:52;43.10;;;22.98;;
64842;SDS011;51310;52.198;5.422;2022-11-20T12:17:22;42.42;;;24.40;;
64842;SDS011;51310;52.198;5.422;2022-11-20T12:19:49;44.00;;;25.70;;
64842;SDS011;51310;52.198;5.422;2022-11-20T12:27:56;52.92;;;25.65;;
64842;SDS011;51310;52.198;5.422;2022-11-20T12:37:27;47.88;;;24.40;;
64842;SDS011;51310;52.198;5.422;2022-11-20T12:43:24;45.05;;;24.80;;
64842;SDS011;51310;52.198;5.422;2022-11-20T12:49:03;51.95;;;25.92;;
64842;SDS011;51310;52.198;5.422;2022-11-20T12:52:05;44.25;;;24.80;;
64842;SDS011;51310;52.198;5.422;2022-11-20T12:55:14;45.90;;;24.35;;
64842;SDS011;51310;52.198;5.422;2022-11-20T12:58:09;50.63;;;26.03;;
64842;SDS011;51310;52.198;5.422;2022-11-20T13:00:41;50.97;;;26.27;;
64842;SDS011;51310;52.198;5.422;2022-11-20T13:06:17;49.40;;;24.60;;
64842;SDS011;51310;52.198;5.422;2022-11-20T13:08:47;51.70;;;26.15;;
64842;SDS011;51310;52.198;5.422;2022-11-20T13:12:05;45.05;;;25.30;;
64842;SDS011;51310;52.198;5.422;2022-11-20T13:14:31;48.07;;;25.03;;
64842;SDS011;51310;52.198;5.422;2022-11-20T13:17:24;48.47;;;25.25;;
64842;SDS011;51310;52.198;5.422;2022-11-20T13:20:14;44.08;;;23.95;;
64842;SDS011;51310;52.198;5.422;2022-11-20T13:22:47;44.80;;;24.38;;
64842;SDS011;51310;52.198;5.422;2022-11-20T13:25:30;48.00;;;25.98;;
64842;SDS011;51310;52.198;5.422;2022-11-20T13:28:00;43.97;;;24.42;;
64842;SDS011;51310;52.198;5.422;2022-11-20T13:30:55;47.40;;;23.67;;
64842;SDS011;51310;52.198;5.422;2022-11-20T13:33:30;48.40;;;24.52;;
64842;SDS011;51310;52.198;5.422;2022-11-20T13:36:04;45.55;;;24.42;;
64842;SDS011;51310;52.198;5.422;2022-11-20T13:38:53;45.05;;;24.95;;
64842;SDS011;51310;52.198;5.422;2022-11-20T13:46:41;45.10;;;23.98;;
64842;SDS011;51310;52.198;5.422;2022-11-20T13:49:18;46.75;;;25.00;;
64842;SDS011;51310;52.198;5.422;2022-11-20T13:52:03;43.63;;;23.67;;
64842;SDS011;51310;52.198;5.422;2022-11-20T14:00:58;45.67;;;24.20;;
64842;SDS011;51310;52.198;5.422;2022-11-20T14:03:32;43.40;;;24.00;;
64842;SDS011;51310;52.198;5.422;2022-11-20T14:06:03;46.78;;;24.08;;
64842;SDS011;51310;52.198;5.422;2022-11-20T14:11:17;49.28;;;23.55;;
64842;SDS011;51310;52.198;5.422;2022-11-20T14:14:30;42.80;;;23.67;;
64842;SDS011;51310;52.198;5.422;2022-11-20T14:16:46;51.10;;;24.90;;
64842;SDS011;51310;52.198;5.422;2022-11-20T14:21:49;42.83;;;23.73;;
64842;SDS011;51310;52.198;5.422;2022-11-20T14:24:23;48.10;;;25.47;;
64842;SDS011;51310;52.198;5.422;2022-11-20T14:26:50;47.53;;;23.13;;
64842;SDS011;51310;52.198;5.422;2022-11-20T14:29:26;49.08;;;24.45;;
64842;SDS011;51310;52.198;5.422;2022-11-20T14:31:59;50.55;;;25.63;;
64842;SDS011;51310;52.198;5.422;2022-11-20T14:34:28;47.72;;;25.00;;
64842;SDS011;51310;52.198;5.422;2022-11-20T14:37:01;53.17;;;25.48;;
64842;SDS011;51310;52.198;5.422;2022-11-20T14:39:35;48.83;;;25.75;;
64842;SDS011;51310;52.198;5.422;2022-11-20T14:42:14;53.40;;;27.45;;
64842;SDS011;51310;52.198;5.422;2022-11-20T14:44:44;57.42;;;27.42;;
64842;SDS011;51310;52.198;5.422;2022-11-20T14:47:13;51.75;;;25.83;;
64842;SDS011;51310;52.198;5.422;2022-11-20T14:49:47;51.53;;;26.90;;
64842;SDS011;51310;52.198;5.422;2022-11-20T14:52:17;56.42;;;26.15;;
64842;SDS011;51310;52.198;5.422;2022-11-20T14:54:47;49.38;;;26.02;;
64842;SDS011;51310;52.198;5.422;2022-11-20T14:57:31;50.63;;;26.27;;
64842;SDS011;51310;52.198;5.422;2022-11-20T15:00:34;48.72;;;25.85;;
64842;SDS011;51310;52.198;5.422;2022-11-20T15:02:54;49.55;;;26.02;;
64842;SDS011;51310;52.198;5.422;2022-11-20T15:05:22;54.75;;;27.25;;
64842;SDS011;51310;52.198;5.422;2022-11-20T15:08:09;52.55;;;27.45;;
64842;SDS011;51310;52.198;5.422;2022-11-20T15:10:37;51.42;;;25.92;;
64842;SDS011;51310;52.198;5.422;2022-11-20T15:13:15;51.42;;;26.10;;
64842;SDS011;51310;52.198;5.422;2022-11-20T15:16:01;52.40;;;26.15;;
64842;SDS011;51310;52.198;5.422;2022-11-20T15:18:37;50.77;;;26.07;;
64842;SDS011;51310;52.198;5.422;2022-11-20T15:21:12;54.45;;;27.50;;
64842;SDS011;51310;52.198;5.422;2022-11-20T15:23:44;54.88;;;27.40;;
64842;SDS011;51310;52.198;5.422;2022-11-20T15:26:11;58.47;;;27.60;;
64842;SDS011;51310;52.198;5.422;2022-11-20T15:28:43;58.00;;;26.50;;
64842;SDS011;51310;52.198;5.422;2022-11-20T15:31:13;56.55;;;27.45;;
64842;SDS011;51310;52.198;5.422;2022-11-20T15:33:45;62.45;;;28.35;;
64842;SDS011;51310;52.198;5.422;2022-11-20T15:36:11;56.83;;;27.20;;
64842;SDS011;51310;52.198;5.422;2022-11-20T15:38:37;53.65;;;27.15;;
64842;SDS011;51310;52.198;5.422;2022-11-20T15:41:04;58.50;;;28.03;;
64842;SDS011;51310;52.198;5.422;2022-11-20T15:43:30;60.80;;;28.23;;
64842;SDS011;51310;52.198;5.422;2022-11-20T15:45:58;56.08;;;28.63;;
64842;SDS011;51310;52.198;5.422;2022-11-20T15:51:04;57.67;;;27.52;;
64842;SDS011;51310;52.198;5.422;2022-11-20T15:54:11;61.75;;;28.25;;
64842;SDS011;51310;52.198;5.422;2022-11-20T15:56:45;59.28;;;28.30;;
64842;SDS011;51310;52.198;5.422;2022-11-20T15:59:17;57.45;;;29.73;;
64842;SDS011;51310;52.198;5.422;2022-11-20T16:01:43;61.63;;;29.63;;
64842;SDS011;51310;52.198;5.422;2022-11-20T16:04:13;60.50;;;30.23;;
64842;SDS011;51310;52.198;5.422;2022-11-20T16:06:41;60.63;;;29.63;;
64842;SDS011;51310;52.198;5.422;2022-11-20T16:09:07;61.10;;;29.83;;
64842;SDS011;51310;52.198;5.422;2022-11-20T16:11:34;68.88;;;32.15;;
64842;SDS011;51310;52.198;5.422;2022-11-20T16:14:03;65.33;;;31.73;;
64842;SDS011;51310;52.198;5.422;2022-11-20T16:16:48;70.75;;;31.75;;
64842;SDS011;51310;52.198;5.422;2022-11-20T16:19:15;58.38;;;29.90;;
64842;SDS011;51310;52.198;5.422;2022-11-20T16:21:41;63.78;;;30.77;;
64842;SDS011;51310;52.198;5.422;2022-11-20T16:24:09;65.22;;;31.73;;